Time;durP1;ratioP1;P1;durP2;ratioP2;P2;SDS_P1;SDS_P2;PMS_P1;PMS_P2;Temp;Humidity;BMP_temperature;BMP_pressure;BME280_temperature;BME280_humidity;BME280_pressure;Samples;Min_cycle;Max_cycle;Signal;HPM_P1;HPM_P2
2023/01/20 00:01:47;;;;;;;3.42;2.20;;;;;;;19.67;43.44;100129.75;5074648;28;20060;-48
2023/01/20 00:04:17;;;;;;;4.15;2.35;;;;;;;19.66;43.21;100139.66;5074692;28;20044;-49
2023/01/20 00:06:45;;;;;;;3.65;2.38;;;;;;;19.65;43.27;100132.59;5074428;28;20402;-50
2023/01/20 00:09:16;;;;;;;3.28;2.47;;;;;;;19.63;43.06;100145.31;5074810;28;20399;-57
2023/01/20 00:11:45;;;;;;;3.15;2.13;;;;;;;19.62;43.21;100138.25;5074538;28;20049;-57
2023/01/20 00:14:12;;;;;;;3.88;2.75;;;;;;;19.62;43.22;100146.31;5074276;28;20074;-56
2023/01/20 00:16:39;;;;;;;3.70;2.63;;;;;;;19.62;43.13;100157.06;5074162;28;20052;-56
2023/01/20 00:19:08;;;;;;;3.45;2.45;;;;;;;19.61;43.17;100158.06;5074315;28;20047;-56
2023/01/20 00:21:35;;;;;;;3.80;2.63;;;;;;;19.61;43.09;100158.06;5074075;28;20048;-55
2023/01/20 00:24:03;;;;;;;3.90;2.47;;;;;;;19.60;43.09;100161.69;5073640;28;20441;-55
2023/01/20 00:26:30;;;;;;;4.95;2.40;;;;;;;19.59;42.95;100162.69;5073949;28;20041;-56
2023/01/20 00:28:57;;;;;;;3.60;2.58;;;;;;;19.58;43.02;100163.69;5074188;28;20036;-57
2023/01/20 00:31:27;;;;;;;3.97;2.58;;;;;;;19.58;42.79;100170.91;5074258;28;20052;-56
2023/01/20 00:33:57;;;;;;;3.35;2.22;;;;;;;19.57;43.02;100172.75;5073993;28;20055;-57
2023/01/20 00:36:26;;;;;;;3.25;2.33;;;;;;;19.56;42.93;100176.41;5073785;28;20348;-56
2023/01/20 00:38:53;;;;;;;4.00;2.47;;;;;;;19.56;42.97;100178.25;5074556;28;20493;-57
2023/01/20 00:41:21;;;;;;;3.50;2.53;;;;;;;19.56;42.85;100178.25;5073686;28;20383;-56
2023/01/20 00:43:49;;;;;;;4.68;2.53;;;;;;;19.55;42.95;100185.44;5072605;28;20063;-57
2023/01/20 00:46:16;;;;;;;3.72;2.40;;;;;;;19.54;42.89;100183.78;5073971;28;20055;-57
2023/01/20 00:48:43;;;;;;;4.53;2.30;;;;;;;19.53;42.86;100179.41;5073854;28;20048;-48
2023/01/20 00:51:11;;;;;;;3.88;2.60;;;;;;;19.52;42.97;100191.94;5073682;28;20071;-49
2023/01/20 00:53:53;;;;;;;5.22;2.00;;;;;;;19.52;43.04;100186.59;5040586;28;20406;-48
2023/01/20 00:56:20;;;;;;;3.60;2.10;;;;;;;19.53;42.88;100198.19;5073678;28;20055;-47
2023/01/20 00:58:48;;;;;;;3.10;2.50;;;;;;;19.51;43.03;100190.28;5073597;28;20052;-56
2023/01/20 01:01:15;;;;;;;3.60;2.40;;;;;;;19.51;42.95;100192.97;5073472;28;20045;-56
2023/01/20 01:03:43;;;;;;;3.60;2.28;;;;;;;19.51;42.95;100200.16;5073169;28;20059;-56
2023/01/20 01:06:13;;;;;;;3.60;2.55;;;;;;;19.51;42.97;100200.16;5073242;28;20040;-57
2023/01/20 01:08:42;;;;;;;4.32;2.85;;;;;;;19.49;42.90;100210.22;5073538;28;20045;-56
2023/01/20 01:11:10;;;;;;;3.47;2.20;;;;;;;19.48;43.11;100206.66;5073271;28;20044;-57
2023/01/20 01:13:39;;;;;;;2.47;1.85;;;;;;;19.48;43.21;100212.03;5073274;28;20052;-57
2023/01/20 01:16:14;;;;;;;3.90;2.28;;;;;;;19.47;43.20;100210.34;5073482;28;20044;-56
2023/01/20 01:18:42;;;;;;;3.42;2.10;;;;;;;19.48;43.25;100217.41;5073607;28;20049;-48
2023/01/20 01:21:12;;;;;;;2.70;1.83;;;;;;;19.47;43.38;100217.56;5072991;28;20459;-47
2023/01/20 01:23:40;;;;;;;3.03;2.00;;;;;;;19.46;43.32;100213.19;5073190;28;20049;-48
2023/01/20 01:26:09;;;;;;;3.20;1.83;;;;;;;19.45;43.35;100217.72;5073599;28;20060;-48
2023/01/20 01:28:37;;;;;;;3.35;2.30;;;;;;;19.45;43.37;100228.47;5073679;28;20047;-48
2023/01/20 01:31:06;;;;;;;3.58;1.83;;;;;;;19.45;43.39;100222.25;5073022;28;20040;-47
2023/01/20 01:33:33;;;;;;;4.00;1.98;;;;;;;19.44;43.29;100221.38;5072984;28;20045;-50
2023/01/20 01:36:02;;;;;;;2.72;1.98;;;;;;;19.44;43.47;100220.53;5073137;28;20498;-48
2023/01/20 01:38:30;;;;;;;2.95;2.10;;;;;;;19.43;43.41;100225.06;5073498;28;20394;-48
2023/01/20 01:40:57;;;;;;;2.88;2.15;;;;;;;19.44;43.53;100231.28;5073239;28;20059;-48
2023/01/20 01:43:27;;;;;;;2.97;1.83;;;;;;;19.42;43.17;100226.06;5073115;28;20410;-50
2023/01/20 01:45:54;;;;;;;3.65;2.10;;;;;;;19.43;43.65;100222.38;5073153;28;20071;-50
2023/01/20 01:48:31;;;;;;;3.13;2.08;;;;;;;19.42;43.28;100234.13;5073226;28;20040;-47
2023/01/20 01:51:06;;;;;;;3.47;1.98;;;;;;;19.43;43.49;100224.22;5073127;28;20475;-50
2023/01/20 01:53:41;;;;;;;3.10;2.00;;;;;;;19.42;43.48;100222.53;5073002;28;20409;-47
2023/01/20 01:56:09;;;;;;;2.80;1.98;;;;;;;19.42;43.62;100222.53;5073375;28;20055;-49
2023/01/20 01:58:43;;;;;;;4.03;2.15;;;;;;;19.41;43.61;100216.31;5073291;28;20048;-48
2023/01/20 02:01:11;;;;;;;3.65;2.00;;;;;;;19.41;43.61;100212.81;5072767;28;20067;-48
2023/01/20 02:03:51;;;;;;;3.00;2.10;;;;;;;19.40;43.64;100203.88;5072714;28;20036;-49
2023/01/20 02:06:21;;;;;;;4.20;2.22;;;;;;;19.41;43.60;100210.97;5072670;28;20052;-49
2023/01/20 02:08:49;;;;;;;3.20;1.95;;;;;;;19.41;43.72;100210.13;5073328;28;20052;-57
2023/01/20 02:11:16;;;;;;;5.68;2.08;;;;;;;19.40;43.66;100203.88;5076792;28;20040;-56
2023/01/20 02:13:44;;;;;;;3.10;1.90;;;;;;;19.39;43.66;100206.72;5076464;28;20053;-56
2023/01/20 02:16:30;;;;;;;3.05;2.33;;;;;;;19.39;43.64;100204.88;5076468;28;20048;-55
2023/01/20 02:19:39;;;;;;;3.40;1.92;;;;;;;19.38;43.53;100187.09;5075555;28;20406;-50
2023/01/20 02:22:25;;;;;;;3.28;2.30;;;;;;;19.37;43.52;100190.78;5065419;28;20079;-47
2023/01/20 02:25:17;;;;;;;2.90;1.88;;;;;;;19.36;43.75;100191.75;5076494;28;20059;-47
2023/01/20 02:28:05;;;;;;;4.47;2.10;;;;;;;19.36;43.65;100198.94;5076446;28;20059;-56
2023/01/20 02:31:19;;;;;;;4.47;2.00;;;;;;;19.36;43.60;100190.91;5076382;28;20036;-47
2023/01/20 02:34:10;;;;;;;2.55;1.73;;;;;;;19.35;43.74;100186.53;5076243;28;20048;-47
2023/01/20 02:36:46;;;;;;;2.75;1.90;;;;;;;19.37;43.68;100176.50;5070547;28;20052;-46
2023/01/20 02:39:44;;;;;;;3.00;1.70;;;;;;;19.36;43.58;100185.53;5075143;28;20048;-56
2023/01/20 02:42:21;;;;;;;2.67;1.95;;;;;;;19.36;43.68;100185.53;5076226;28;20045;-56
2023/01/20 02:44:54;;;;;;;2.65;1.80;;;;;;;19.36;43.64;100180.16;5076373;28;20059;-56
2023/01/20 02:47:30;;;;;;;3.03;1.92;;;;;;;19.36;43.65;100177.47;5076046;28;20044;-56
2023/01/20 02:50:09;;;;;;;3.63;2.10;;;;;;;19.35;43.79;100170.44;5076321;28;20040;-55
2023/01/20 02:52:42;;;;;;;3.10;2.10;;;;;;;19.34;43.71;100166.91;5076100;28;20049;-56
2023/01/20 02:55:11;;;;;;;;;;;;;;;19.34;43.85;100166.06;5076451;28;20052;-55
2023/01/20 02:57:45;;;;;;;4.40;1.80;;;;;;;19.34;43.78;100160.69;5076131;28;19927;-57
2023/01/20 03:00:19;;;;;;;;;;;;;;;19.33;43.62;100161.69;5076430;28;20111;-47
2023/01/20 03:02:49;;;;;;;3.17;1.70;;;;;;;19.33;43.62;100162.53;5075938;28;19927;-46
2023/01/20 03:05:21;;;;;;;2.80;1.85;;;;;;;19.32;43.70;100170.72;5075827;28;20052;-48
2023/01/20 03:07:52;;;;;;;2.28;1.65;;;;;;;19.32;43.78;100168.03;5075841;28;20044;-46
2023/01/20 03:10:23;;;;;;;3.13;1.80;;;;;;;19.31;43.73;100164.50;5075676;28;20045;-47
2023/01/20 03:12:56;;;;;;;3.95;2.30;;;;;;;19.31;43.80;100164.50;5075623;28;20051;-48
2023/01/20 03:15:34;;;;;;;2.67;1.80;;;;;;;19.32;43.68;100162.66;5075536;28;20065;-51
2023/01/20 03:18:01;;;;;;;3.20;2.10;;;;;;;19.30;43.74;100170.88;5075651;28;20360;-56
2023/01/20 03:20:29;;;;;;;3.00;1.58;;;;;;;19.31;43.73;100182.47;5074322;28;20044;-47
2023/01/20 03:22:57;;;;;;;2.50;1.60;;;;;;;19.31;43.84;100171.72;5075316;28;20049;-48
2023/01/20 03:25:24;;;;;;;2.72;1.90;;;;;;;19.30;43.80;100175.41;5075220;28;20363;-47
2023/01/20 03:27:52;;;;;;;3.28;2.05;;;;;;;19.31;43.84;100179.78;5074437;28;20052;-54
2023/01/20 03:30:20;;;;;;;4.45;2.17;;;;;;;19.29;43.87;100168.34;5074997;28;20036;-50
2023/01/20 03:32:50;;;;;;;3.80;2.05;;;;;;;19.29;43.92;100168.34;5075170;28;20048;-48
2023/01/20 03:35:18;;;;;;;2.45;1.65;;;;;;;19.28;44.03;100162.13;5075166;28;20044;-51
2023/01/20 03:37:45;;;;;;;3.15;2.15;;;;;;;19.27;43.96;100153.22;5075677;28;20048;-57
2023/01/20 03:40:14;;;;;;;2.55;1.60;;;;;;;19.27;43.79;100155.06;5075337;28;20052;-49
2023/01/20 03:43:29;;;;;;;3.35;1.73;;;;;;;19.26;43.96;100154.22;5075104;28;20040;-51
2023/01/20 03:46:05;;;;;;;3.72;2.17;;;;;;;19.26;44.00;100158.75;5032878;28;20053;-49
2023/01/20 03:48:50;;;;;;;3.20;1.85;;;;;;;19.25;43.79;100163.28;5033413;28;20061;-56
2023/01/20 03:51:26;;;;;;;2.65;1.98;;;;;;;19.25;43.95;100163.28;5032794;28;20057;-54
2023/01/20 03:54:05;;;;;;;2.53;1.58;;;;;;;19.26;44.00;100169.47;5032975;28;20049;-57
2023/01/20 03:56:50;;;;;;;3.38;1.85;;;;;;;19.24;43.69;100163.41;5032697;28;20496;-57
2023/01/20 03:59:19;;;;;;;3.53;2.22;;;;;;;19.23;43.97;100162.56;5032415;28;20056;-56
2023/01/20 04:01:47;;;;;;;2.55;1.58;;;;;;;19.24;43.85;100166.09;5032734;28;20045;-56
2023/01/20 04:04:17;;;;;;;2.70;1.60;;;;;;;19.24;43.74;100161.59;5016456;28;20057;-56
2023/01/20 04:06:48;;;;;;;2.78;1.80;;;;;;;19.23;43.92;100159.88;5032678;28;20065;-57
2023/01/20 04:09:23;;;;;;;2.97;1.92;;;;;;;19.23;43.85;100159.88;5031763;28;20053;-50
2023/01/20 04:11:50;;;;;;;3.13;1.58;;;;;;;19.23;44.00;100159.88;5032453;28;20071;-48
2023/01/20 04:14:18;;;;;;;3.80;2.00;;;;;;;19.23;43.70;100164.41;5031654;28;20057;-47
2023/01/20 04:16:52;;;;;;;2.97;1.75;;;;;;;19.23;43.85;100167.94;5055065;28;20079;-49
2023/01/20 04:19:19;;;;;;;3.13;2.08;;;;;;;19.24;43.67;100166.09;5074709;28;20044;-49
2023/01/20 04:22:01;;;;;;;2.30;1.35;;;;;;;19.24;43.64;100158.91;5074266;28;20482;-49
2023/01/20 04:24:36;;;;;;;3.15;2.03;;;;;;;19.23;43.85;100162.56;5074348;28;20056;-47
2023/01/20 04:27:04;;;;;;;5.28;2.10;;;;;;;19.23;43.69;100165.25;5074263;28;20040;-48
2023/01/20 04:29:31;;;;;;;3.58;2.13;;;;;;;19.24;43.67;100163.41;5072991;28;20052;-56
2023/01/20 04:32:00;;;;;;;3.13;1.77;;;;;;;19.23;43.81;100165.25;5072270;28;20060;-56
2023/01/20 04:34:27;;;;;;;3.15;2.08;;;;;;;19.23;43.88;100161.72;5073996;28;20048;-56
2023/01/20 04:36:55;;;;;;;2.90;1.70;;;;;;;19.23;43.72;100164.41;5073942;28;20123;-57
2023/01/20 04:39:22;;;;;;;2.97;2.05;;;;;;;19.23;43.82;100167.09;5073925;28;20053;-50
2023/01/20 04:41:49;;;;;;;2.63;1.77;;;;;;;19.22;43.79;100171.59;5073778;28;20041;-48
2023/01/20 04:44:16;;;;;;;3.53;1.80;;;;;;;19.22;43.69;100166.25;5073656;28;20068;-49
2023/01/20 04:46:46;;;;;;;3.50;2.00;;;;;;;19.22;43.66;100166.25;5073893;28;20048;-48
2023/01/20 04:49:14;;;;;;;2.58;1.80;;;;;;;19.22;43.85;100158.19;5073074;28;20048;-56
2023/01/20 04:51:41;;;;;;;2.80;1.70;;;;;;;19.21;43.79;100158.34;5073857;28;20398;-56
2023/01/20 04:54:10;;;;;;;2.75;1.58;;;;;;;19.21;43.88;100164.56;5073971;28;20466;-57
2023/01/20 04:56:37;;;;;;;3.33;1.80;;;;;;;19.20;43.94;100165.56;5073154;28;20048;-57
2023/01/20 04:59:04;;;;;;;2.80;1.70;;;;;;;19.19;43.81;100169.22;5073431;28;20085;-56
2023/01/20 05:01:32;;;;;;;3.72;1.88;;;;;;;19.17;43.71;100171.22;5073318;28;20123;-56
2023/01/20 05:03:59;;;;;;;3.50;1.98;;;;;;;19.18;43.85;100188.16;5073261;28;20044;-57
2023/01/20 05:06:27;;;;;;;2.50;1.63;;;;;;;19.16;43.84;100182.94;5073446;28;20040;-55
2023/01/20 05:08:54;;;;;;;2.55;1.83;;;;;;;19.17;43.90;100191.84;5073524;28;20055;-57
2023/01/20 05:11:21;;;;;;;2.85;1.95;;;;;;;19.18;44.02;100190.84;5073584;28;20045;-56
2023/01/20 05:13:48;;;;;;;2.65;1.65;;;;;;;19.18;43.81;100193.53;5073903;28;20048;-56
2023/01/20 05:16:22;;;;;;;3.40;1.92;;;;;;;19.16;43.87;100196.38;5073477;28;20049;-56
2023/01/20 05:18:50;;;;;;;3.30;1.92;;;;;;;19.17;43.98;100208.78;5073869;28;20051;-55
2023/01/20 05:21:17;;;;;;;3.88;2.42;;;;;;;19.16;43.73;100214.28;5073958;28;20045;-56
2023/01/20 05:23:44;;;;;;;2.47;1.70;;;;;;;19.16;43.82;100219.63;5073623;28;20045;-55
2023/01/20 05:26:12;;;;;;;3.47;2.28;;;;;;;19.16;43.85;100219.63;5073503;28;20082;-57
2023/01/20 05:28:41;;;;;;;4.07;2.40;;;;;;;19.16;43.91;100225.00;5073637;28;20071;-47
2023/01/20 05:31:08;;;;;;;4.50;1.90;;;;;;;19.13;43.99;100231.53;5073400;28;20044;-47
2023/01/20 05:33:38;;;;;;;3.67;2.20;;;;;;;19.15;44.18;100242.94;5073486;28;20068;-48
2023/01/20 05:36:06;;;;;;;2.80;1.77;;;;;;;19.15;43.96;100248.31;5073404;28;20044;-48
2023/01/20 05:38:34;;;;;;;2.97;2.10;;;;;;;19.15;43.80;100237.56;5073606;28;20403;-51
2023/01/20 05:41:04;;;;;;;3.03;2.00;;;;;;;19.15;43.86;100247.47;5073006;28;20060;-50
2023/01/20 05:43:32;;;;;;;4.18;1.65;;;;;;;19.14;43.98;100243.09;5073231;28;20049;-48
2023/01/20 05:45:59;;;;;;;2.95;1.67;;;;;;;19.14;44.19;100248.47;5077231;28;20045;-46
2023/01/20 05:48:27;;;;;;;3.03;1.83;;;;;;;19.13;44.20;100244.94;5077522;28;20044;-56
2023/01/20 05:50:54;;;;;;;3.78;1.92;;;;;;;19.13;44.13;100244.94;5077259;28;20055;-59
2023/01/20 05:53:22;;;;;;;5.05;2.60;;;;;;;19.13;44.09;100250.31;5077169;28;20049;-57
2023/01/20 05:55:57;;;;;;;5.60;2.30;;;;;;;19.12;44.12;100248.63;5076702;28;20049;-57
2023/01/20 05:58:25;;;;;;;3.45;1.80;;;;;;;19.12;44.21;100254.00;5077137;28;20048;-48
2023/01/20 06:00:52;;;;;;;4.18;2.10;;;;;;;19.12;44.17;100254.00;5077316;28;20044;-48
2023/01/20 06:03:19;;;;;;;3.20;2.10;;;;;;;19.11;44.09;100252.28;5077024;28;20398;-50
2023/01/20 06:05:48;;;;;;;3.20;2.05;;;;;;;19.12;44.14;100256.69;5076792;28;20056;-47
2023/01/20 06:08:15;;;;;;;4.20;2.17;;;;;;;19.12;44.30;100255.81;5077220;28;20079;-56
2023/01/20 06:10:42;;;;;;;4.03;1.60;;;;;;;19.12;44.09;100256.69;5076812;28;20044;-56
2023/01/20 06:13:10;;;;;;;3.38;1.90;;;;;;;19.11;44.12;100256.78;5076999;28;20051;-55
2023/01/20 06:15:37;;;;;;;2.88;1.83;;;;;;;19.10;44.14;100250.59;5076872;28;20049;-57
2023/01/20 06:18:06;;;;;;;3.30;2.22;;;;;;;19.09;44.06;100256.13;5076948;28;20055;-57
2023/01/20 06:20:33;;;;;;;3.72;2.20;;;;;;;19.10;44.10;100263.16;5076699;28;20048;-47
2023/01/20 06:23:00;;;;;;;4.13;2.45;;;;;;;19.09;43.99;100256.94;5076633;28;20036;-48
2023/01/20 06:25:28;;;;;;;3.15;2.13;;;;;;;19.08;44.05;100257.94;5076528;28;20044;-47
2023/01/20 06:27:55;;;;;;;2.83;2.10;;;;;;;19.08;44.15;100255.28;5076743;28;20045;-47
2023/01/20 06:30:24;;;;;;;3.72;2.13;;;;;;;19.07;44.00;100266.97;5076583;28;20051;-48
2023/01/20 06:32:53;;;;;;;5.68;2.80;;;;;;;19.08;44.12;100265.13;5076397;28;20040;-48
2023/01/20 06:35:20;;;;;;;3.42;2.08;;;;;;;19.07;43.98;100258.91;5076332;28;20051;-47
2023/01/20 06:37:48;;;;;;;2.88;1.95;;;;;;;19.06;44.08;100259.06;5076438;28;20386;-48
2023/01/20 06:40:15;;;;;;;4.10;2.38;;;;;;;19.07;43.94;100260.75;5076380;28;20040;-47
2023/01/20 06:42:43;;;;;;;3.35;2.45;;;;;;;19.05;43.87;100263.59;5076098;28;20040;-52
2023/01/20 06:45:10;;;;;;;3.53;2.58;;;;;;;19.06;43.92;100265.28;5076241;28;20052;-47
2023/01/20 06:47:37;;;;;;;4.82;2.85;;;;;;;19.06;43.84;100261.75;5075012;28;20063;-49
2023/01/20 06:50:08;;;;;;;3.03;2.28;;;;;;;19.07;43.82;100277.69;5076523;28;20075;-56
2023/01/20 06:52:35;;;;;;;5.25;3.42;;;;;;;19.07;43.77;100266.97;5075716;28;20048;-57
2023/01/20 06:55:03;;;;;;;3.67;2.58;;;;;;;19.08;43.95;100262.44;5075736;28;20055;-57
2023/01/20 06:57:30;;;;;;;4.72;2.72;;;;;;;19.06;43.71;100270.66;5076035;28;20071;-57
2023/01/20 06:59:58;;;;;;;4.53;2.90;;;;;;;19.07;43.83;100275.00;5076227;28;20051;-58
2023/01/20 07:02:25;;;;;;;3.42;2.58;;;;;;;19.07;43.83;100277.69;5076025;28;20388;-58
2023/01/20 07:04:52;;;;;;;5.05;2.50;;;;;;;19.07;43.97;100276.84;5076010;28;20056;-58
2023/01/20 07:07:20;;;;;;;3.55;2.50;;;;;;;19.06;43.77;100283.22;5075821;28;20048;-56
2023/01/20 07:09:47;;;;;;;3.30;2.40;;;;;;;19.07;43.83;100285.75;5075852;28;20044;-50
2023/01/20 07:12:14;;;;;;;4.35;2.60;;;;;;;19.05;43.86;100287.75;5075254;28;20051;-49
2023/01/20 07:14:42;;;;;;;3.72;2.40;;;;;;;19.05;43.98;100285.06;5075511;28;20051;-49
2023/01/20 07:17:11;;;;;;;5.18;2.80;;;;;;;19.06;44.03;100300.16;5075320;28;20068;-48
2023/01/20 07:19:38;;;;;;;4.38;2.78;;;;;;;19.05;44.29;100292.25;5075888;28;20051;-61
2023/01/20 07:22:05;;;;;;;3.50;2.58;;;;;;;19.05;44.32;100295.78;5075500;28;20040;-61
2023/01/20 07:24:33;;;;;;;4.28;2.90;;;;;;;19.07;44.19;100295.63;5075923;28;20059;-60
2023/01/20 07:27:00;;;;;;;4.95;2.40;;;;;;;19.05;44.25;100294.94;5075406;28;20044;-61
2023/01/20 07:29:27;;;;;;;4.38;2.83;;;;;;;19.06;44.19;100296.63;5075735;28;20052;-51
2023/01/20 07:31:55;;;;;;;6.30;2.83;;;;;;;19.04;44.20;100296.78;5075372;28;20055;-51
2023/01/20 07:34:22;;;;;;;5.07;2.67;;;;;;;19.04;44.34;100296.78;5075042;28;20513;-50
2023/01/20 07:36:53;;;;;;;3.70;2.75;;;;;;;19.03;44.28;100295.06;5074894;28;20052;-49
2023/01/20 07:39:20;;;;;;;7.22;3.08;;;;;;;19.05;44.46;100300.31;5075287;28;20051;-59
2023/01/20 07:41:48;;;;;;;4.50;2.95;;;;;;;19.04;44.56;100299.47;5073826;28;20071;-59
2023/01/20 07:44:16;;;;;;;3.35;2.67;;;;;;;19.05;44.62;100306.53;5074944;28;20045;-59
2023/01/20 07:46:43;;;;;;;4.47;3.13;;;;;;;19.06;44.55;100302.00;5074968;28;20055;-60
2023/01/20 07:49:11;;;;;;;9.25;7.10;;;;;;;19.04;42.13;100307.53;5074971;28;20055;-47
2023/01/20 07:51:38;;;;;;;13.65;10.70;;;;;;;18.98;40.42;100311.59;5074398;28;20398;-48
2023/01/20 07:54:06;;;;;;;17.30;11.02;;;;;;;18.90;39.74;100314.16;5074458;28;20045;-50
2023/01/20 07:56:33;;;;;;;14.80;11.48;;;;;;;18.83;39.63;100317.53;5074576;28;20053;-48
2023/01/20 07:59:00;;;;;;;14.55;11.82;;;;;;;18.73;39.01;100317.53;5073764;28;20051;-59
2023/01/20 08:01:30;;;;;;;17.00;11.13;;;;;;;18.67;39.46;100321.56;5074404;28;20048;-59
2023/01/20 08:04:02;;;;;;;13.13;10.63;;;;;;;18.64;39.65;100324.56;5074461;28;20075;-58
2023/01/20 08:06:29;;;;;;;14.07;10.70;;;;;;;18.64;39.55;100329.06;5073737;28;20383;-59
2023/01/20 08:09:00;;;;;;;12.07;10.25;;;;;;;18.63;39.57;100327.34;5073171;28;20048;-59
2023/01/20 08:11:28;;;;;;;13.18;11.10;;;;;;;18.62;39.28;100331.88;5074078;28;20044;-59
2023/01/20 08:13:56;;;;;;;13.18;11.25;;;;;;;18.60;39.31;100328.50;5074187;28;20044;-59
2023/01/20 08:16:23;;;;;;;12.45;11.15;;;;;;;18.59;39.06;100336.66;5074268;28;20081;-59
2023/01/20 08:18:53;;;;;;;11.68;9.88;;;;;;;18.55;38.97;100338.78;5074151;28;20040;-59
2023/01/20 08:21:25;;;;;;;11.98;10.15;;;;;;;18.54;38.96;100345.13;5073585;28;20044;-59
2023/01/20 08:24:01;;;;;;;11.57;10.32;;;;;;;18.52;38.91;100345.28;5073739;28;20059;-59
2023/01/20 08:26:29;;;;;;;11.63;9.10;;;;;;;18.51;39.88;100345.41;5074016;28;20044;-59
2023/01/20 08:29:08;;;;;;;13.85;11.70;;;;;;;18.39;38.53;100358.09;5074002;28;20056;-47
2023/01/20 08:31:36;;;;;;;13.45;11.75;;;;;;;18.00;38.48;100359.78;5073900;28;20398;-48
2023/01/20 08:34:06;;;;;;;14.52;12.18;;;;;;;17.63;39.10;100370.97;5073669;28;20371;-46
2023/01/20 08:36:35;;;;;;;15.02;13.25;;;;;;;17.31;39.74;100373.72;5073894;28;20040;-46
2023/01/20 08:39:05;;;;;;;18.33;13.60;;;;;;;17.12;39.82;100382.44;5073754;28;20044;-45
2023/01/20 08:41:36;;;;;;;15.45;13.35;;;;;;;16.88;40.23;100379.97;5067596;28;20044;-45
2023/01/20 08:44:06;;;;;;;14.13;12.07;;;;;;;16.64;40.61;100380.13;5053443;28;20056;-45
2023/01/20 08:46:34;;;;;;;13.98;12.18;;;;;;;16.48;41.43;100382.34;5053435;28;20052;-48
2023/01/20 08:49:01;;;;;;;13.88;10.75;;;;;;;16.54;42.45;100384.53;5053492;28;20056;-48
2023/01/20 08:51:30;;;;;;;11.05;8.82;;;;;;;16.74;44.02;100383.81;5054056;28;20057;-48
2023/01/20 08:53:58;;;;;;;8.32;6.88;;;;;;;16.97;44.90;100386.38;5065429;28;20047;-46
2023/01/20 08:56:27;;;;;;;8.18;6.45;;;;;;;17.16;44.81;100391.91;5073249;28;20048;-48
2023/01/20 08:58:56;;;;;;;7.90;5.28;;;;;;;17.34;45.17;100396.69;5073714;28;20475;-48
2023/01/20 09:01:26;;;;;;;6.53;5.63;;;;;;;17.47;45.50;100392.00;5073495;28;20055;-48
2023/01/20 09:03:54;;;;;;;8.57;5.55;;;;;;;17.60;45.31;100402.50;5073321;28;20045;-51
2023/01/20 09:06:48;;;;;;;8.70;5.03;;;;;;;17.70;44.55;100408.75;5073402;28;20044;-46
2023/01/20 09:09:18;;;;;;;6.55;4.25;;;;;;;17.79;45.12;100416.06;5073544;28;20045;-47
2023/01/20 09:11:52;;;;;;;5.40;4.30;;;;;;;17.87;44.75;100410.06;5073036;28;20041;-47
2023/01/20 09:14:22;;;;;;;5.18;3.72;;;;;;;17.92;44.72;100418.53;5073087;28;20410;-48
2023/01/20 09:16:50;;;;;;;5.75;4.03;;;;;;;17.97;44.87;100417.13;5073059;28;20048;-47
2023/01/20 09:19:17;;;;;;;5.70;4.05;;;;;;;18.01;44.61;100423.91;5073399;28;20040;-60
2023/01/20 09:21:45;;;;;;;4.18;3.25;;;;;;;18.03;44.67;100418.44;5073298;28;20048;-60
2023/01/20 09:24:12;;;;;;;4.55;3.60;;;;;;;18.08;44.71;100426.09;5073143;28;20040;-60
2023/01/20 09:26:40;;;;;;;4.47;3.33;;;;;;;18.10;44.63;100424.94;5073139;28;20410;-60
2023/01/20 09:29:12;;;;;;;5.57;3.20;;;;;;;18.13;44.82;100429.19;5073042;28;20048;-60
2023/01/20 09:31:45;;;;;;;3.90;2.58;;;;;;;18.15;44.80;100425.41;5073124;28;20048;-60
2023/01/20 09:34:23;;;;;;;5.88;3.13;;;;;;;18.16;45.16;100427.09;5073020;28;20048;-59
2023/01/20 09:43:52;;;;;;;5.10;3.20;;;;;;;18.18;45.15;100425.13;5073094;28;20055;-60
2023/01/20 09:46:13;;;;;;;5.45;3.25;;;;;;;18.23;44.93;100433.63;5073240;28;20045;-60
2023/01/20 09:55:30;;;;;;;3.83;2.50;;;;;;;18.27;44.58;100434.19;5073782;28;20387;-50
2023/01/20 09:58:10;;;;;;;5.63;2.80;;;;;;;18.28;44.54;100427.88;5052828;28;20060;-49
2023/01/20 10:00:41;;;;;;;3.58;2.38;;;;;;;18.29;44.30;100442.94;5052436;28;20065;-47
2023/01/20 10:03:16;;;;;;;6.10;2.88;;;;;;;18.28;44.42;100436.75;5052687;28;20196;-48
2023/01/20 10:05:47;;;;;;;3.60;2.80;;;;;;;18.28;44.37;100434.06;5052604;28;20486;-48
2023/01/20 10:08:26;;;;;;;3.58;2.08;;;;;;;18.29;44.26;100433.09;5052629;28;20415;-59
2023/01/20 10:11:09;;;;;;;3.13;1.92;;;;;;;18.32;44.22;100442.69;5059000;28;20513;-60
2023/01/20 10:13:46;;;;;;;3.28;2.10;;;;;;;18.33;44.30;100435.50;5074350;28;20032;-60
2023/01/20 10:16:23;;;;;;;3.45;2.10;;;;;;;18.32;44.20;100433.81;5070476;28;20044;-60
2023/01/20 10:18:59;;;;;;;3.83;2.40;;;;;;;18.33;44.05;100438.19;5072777;28;20048;-60
2023/01/20 10:21:26;;;;;;;3.28;2.17;;;;;;;18.34;44.17;100431.81;5072785;28;20055;-60
2023/01/20 10:23:59;;;;;;;5.18;2.50;;;;;;;18.33;44.01;100425.63;5072742;28;20045;-60
2023/01/20 10:26:43;;;;;;;;;;;;;;;18.35;43.95;100428.16;5073323;28;20049;-60
2023/01/20 10:29:19;;;;;;;4.47;2.72;;;;;;;18.35;43.84;100433.50;5072831;28;19924;-60
2023/01/20 10:31:55;;;;;;;3.72;2.13;;;;;;;18.35;43.90;100430.84;5075924;28;20049;-60
2023/01/20 10:34:28;;;;;;;3.53;2.13;;;;;;;18.35;44.10;100425.47;5076110;28;20044;-60
2023/01/20 10:37:05;;;;;;;4.57;2.78;;;;;;;18.35;44.05;100426.34;5074727;28;20041;-60
2023/01/20 10:39:41;;;;;;;3.60;2.30;;;;;;;18.36;44.12;100427.19;5074718;28;20048;-60
2023/01/20 10:42:12;;;;;;;3.35;2.25;;;;;;;18.36;43.99;100432.56;5075822;28;20467;-60
2023/01/20 10:44:39;;;;;;;3.63;2.20;;;;;;;18.36;43.90;100432.56;5075536;28;20055;-60
2023/01/20 10:47:14;;;;;;;3.28;2.30;;;;;;;18.37;43.83;100428.88;5075892;28;20387;-60
2023/01/20 10:49:53;;;;;;;4.57;2.22;;;;;;;18.37;43.87;100431.56;5076238;28;20045;-60
2023/01/20 10:52:33;;;;;;;6.00;2.20;;;;;;;18.37;43.61;100428.88;5075546;28;20075;-60
2023/01/20 10:55:17;;;;;;;4.57;2.22;;;;;;;18.37;43.65;100437.78;5075306;28;20048;-60
2023/01/20 10:57:57;;;;;;;3.40;2.03;;;;;;;18.39;43.80;100432.25;5075554;28;20051;-54
2023/01/20 11:00:28;;;;;;;3.25;1.73;;;;;;;18.39;43.92;100432.25;5075831;28;20076;-60
2023/01/20 11:02:58;;;;;;;4.70;2.45;;;;;;;18.38;43.75;100431.41;5074674;28;20508;-60
2023/01/20 11:05:31;;;;;;;3.60;2.03;;;;;;;18.39;43.70;100426.91;5075721;28;20498;-60
2023/01/20 11:08:14;;;;;;;3.38;1.92;;;;;;;18.39;43.74;100426.91;5075854;28;20044;-50
2023/01/20 11:10:41;;;;;;;3.57;2.37;;;;;;;18.40;43.83;100433.97;5075465;28;20490;-47
2023/01/20 11:13:10;;;;;;;3.38;1.90;;;;;;;18.40;43.85;100431.31;5075627;28;20286;-47
2023/01/20 11:15:45;;;;;;;3.53;2.30;;;;;;;18.41;44.01;100435.66;5075238;28;20051;-47
2023/01/20 11:18:15;;;;;;;3.45;1.92;;;;;;;18.41;43.99;100424.94;5075618;28;20053;-59
2023/01/20 11:20:51;;;;;;;2.70;2.03;;;;;;;18.42;43.85;100423.97;5075628;28;20057;-60
2023/01/20 11:23:37;;;;;;;2.85;1.80;;;;;;;18.40;43.94;100418.75;5075170;28;20052;-60
2023/01/20 11:26:17;;;;;;;3.10;2.10;;;;;;;18.41;43.81;100423.13;5075080;28;20071;-60
2023/01/20 11:28:50;;;;;;;3.35;1.80;;;;;;;18.42;43.87;100415.91;5075176;28;20052;-60
2023/01/20 11:31:19;;;;;;;4.25;2.08;;;;;;;18.42;43.85;100427.47;5075240;28;20053;-60
2023/01/20 11:33:57;;;;;;;3.28;1.85;;;;;;;18.41;43.83;100425.78;5075096;28;20048;-60
2023/01/20 11:36:26;;;;;;;2.70;1.88;;;;;;;18.42;44.07;100418.59;5074832;28;20056;-60
2023/01/20 11:38:55;;;;;;;4.53;2.10;;;;;;;18.42;44.06;100419.44;5075127;28;20048;-48
2023/01/20 11:41:29;;;;;;;5.40;2.17;;;;;;;18.43;44.29;100417.59;5073905;28;20048;-49
2023/01/20 11:43:59;;;;;;;3.20;2.00;;;;;;;18.43;43.99;100418.47;5054687;28;20053;-48
2023/01/20 11:46:30;;;;;;;3.67;1.95;;;;;;;18.44;44.13;100413.97;5055057;28;20056;-48
2023/01/20 11:49:15;;;;;;;5.45;2.00;;;;;;;18.45;44.02;100415.66;5055196;28;20045;-60
2023/01/20 11:51:47;;;;;;;3.50;1.90;;;;;;;18.44;43.96;100416.66;5054995;28;20059;-60
2023/01/20 11:54:19;;;;;;;3.55;2.20;;;;;;;18.44;43.86;100405.94;5054910;28;20380;-60
2023/01/20 11:56:50;;;;;;;5.60;2.10;;;;;;;18.44;43.93;100408.59;5054697;28;20491;-60